createdAt,value
2023-02-28T00:00:16.848Z,103215.48
2023-02-28T00:02:47.938Z,103215.39
2023-02-28T00:05:20.757Z,103212.22
2023-02-28T00:07:51.472Z,103217.48
2023-02-28T00:10:26.429Z,103215.22
2023-02-28T00:13:01.259Z,103208.82
2023-02-28T00:15:31.098Z,103218.53
2023-02-28T00:18:01.029Z,103215.77
2023-02-28T00:20:30.605Z,103215.77
2023-02-28T00:23:00.216Z,103217.58
2023-02-28T00:25:30.301Z,103221.23
2023-02-28T00:28:00.121Z,103216.24
2023-02-28T00:30:29.766Z,103218.97
2023-02-28T00:33:00.366Z,103211.95
2023-02-28T00:35:33.388Z,103210.98
2023-02-28T00:38:03.358Z,103208.45
2023-02-28T00:40:34.433Z,103208.45
2023-02-28T00:43:04.979Z,103205.52
2023-02-28T00:45:34.750Z,103211.35
2023-02-28T00:48:07.096Z,103209.50
2023-02-28T00:50:37.190Z,103192.16
2023-02-28T00:53:06.979Z,103209.34
2023-02-28T00:55:37.455Z,103210.38
2023-02-28T00:58:09.705Z,103206.25
2023-02-28T01:00:39.530Z,103206.84
2023-02-28T01:03:09.632Z,103209.55
2023-02-28T01:05:39.594Z,103204.25
2023-02-28T01:08:11.175Z,103212.43
2023-02-28T01:10:44.112Z,103206.13
2023-02-28T01:13:14.524Z,103206.10
2023-02-28T01:15:47.462Z,103206.10
2023-02-28T01:18:17.113Z,103217.96
2023-02-28T01:20:47.176Z,103225.95
2023-02-28T01:23:18.803Z,103217.80
2023-02-28T01:25:49.433Z,103216.62
2023-02-28T01:28:19.077Z,103215.50
2023-02-28T01:30:52.890Z,103217.09
2023-02-28T01:33:24.603Z,103211.42
2023-02-28T01:36:11.041Z,103211.53
2023-02-28T01:38:42.398Z,103218.70
2023-02-28T01:41:23.968Z,103209.30
2023-02-28T01:43:59.616Z,103215.19
2023-02-28T01:46:29.456Z,103215.19
2023-02-28T01:49:02.368Z,103206.23
2023-02-28T01:51:55.708Z,103209.84
2023-02-28T01:54:28.602Z,103204.73
2023-02-28T01:57:04.166Z,103200.13
2023-02-28T01:59:38.502Z,103198.12
2023-02-28T02:02:09.822Z,103191.95
2023-02-28T02:04:42.734Z,103199.84
2023-02-28T02:07:14.650Z,103196.86
2023-02-28T02:09:46.219Z,103185.39
2023-02-28T02:12:30.863Z,103196.30
2023-02-28T02:15:09.389Z,103186.34
2023-02-28T02:17:45.073Z,103188.26
2023-02-28T02:20:46.201Z,103188.78
2023-02-28T02:23:44.592Z,103186.01
2023-02-28T02:26:40.504Z,103190.83
2023-02-28T02:29:44.499Z,103187.69
2023-02-28T02:32:22.626Z,103187.97
2023-02-28T02:35:11.367Z,103186.66
2023-02-28T02:37:50.114Z,103195.91
2023-02-28T02:40:31.294Z,103193.77
2023-02-28T02:43:16.031Z,103199.68
2023-02-28T02:45:54.655Z,103188.83
2023-02-28T02:48:29.889Z,103191.94
2023-02-28T02:51:04.644Z,103193.17
2023-02-28T02:53:37.718Z,103192.02
2023-02-28T02:56:10.684Z,103197.24
2023-02-28T02:58:44.254Z,103194.91
2023-02-28T03:01:21.721Z,103194.13
2023-02-28T03:03:51.716Z,103191.83
2023-02-28T03:06:21.917Z,103187.70
2023-02-28T03:08:52.005Z,103192.08
2023-02-28T03:11:22.445Z,103199.84
2023-02-28T03:14:06.952Z,103199.83
2023-02-28T03:16:42.412Z,103194.05
2023-02-28T03:19:34.629Z,103194.06
2023-02-28T03:22:33.350Z,103193.49
2023-02-28T03:25:15.226Z,103191.85
2023-02-28T03:27:48.226Z,103193.95
2023-02-28T03:30:26.654Z,103189.23
2023-02-28T03:33:11.264Z,103198.88
2023-02-28T03:35:47.191Z,103195.22
2023-02-28T03:38:42.210Z,103190.38
2023-02-28T03:41:18.184Z,103200.48
2023-02-28T03:43:56.019Z,103196.84
2023-02-28T03:46:28.947Z,103196.34
2023-02-28T03:49:07.972Z,103196.36
2023-02-28T03:51:40.121Z,103196.00
2023-02-28T03:54:14.214Z,103190.13
2023-02-28T03:56:47.003Z,103186.95
2023-02-28T03:59:28.524Z,103190.20
2023-02-28T04:01:59.809Z,103189.23
2023-02-28T04:04:29.987Z,103190.78
2023-02-28T04:07:08.507Z,103194.44
2023-02-28T04:09:38.877Z,103194.62
2023-02-28T04:12:10.570Z,103194.64
2023-02-28T04:14:40.749Z,103198.59
2023-02-28T04:17:10.636Z,103197.12
2023-02-28T04:19:40.332Z,103188.66
2023-02-28T04:22:12.312Z,103188.08
2023-02-28T04:24:42.540Z,103187.42
2023-02-28T04:27:12.619Z,103187.42
2023-02-28T04:29:44.063Z,103185.22
2023-02-28T04:32:13.856Z,103199.63
2023-02-28T04:34:43.720Z,103185.77
2023-02-28T04:37:14.495Z,103185.98
2023-02-28T04:39:44.820Z,103185.56
2023-02-28T04:42:14.835Z,103189.15
2023-02-28T04:44:44.590Z,103189.91
2023-02-28T04:47:14.814Z,103199.55
2023-02-28T04:49:44.381Z,103196.64
2023-02-28T04:52:14.225Z,103191.75
2023-02-28T04:54:43.977Z,103192.98
2023-02-28T04:57:13.901Z,103195.01
2023-02-28T04:59:43.952Z,103202.63
2023-02-28T05:02:15.518Z,103199.66
2023-02-28T05:04:44.997Z,103199.27
2023-02-28T05:07:15.091Z,103204.45
2023-02-28T05:09:44.969Z,103207.53
2023-02-28T05:12:14.440Z,103203.48
2023-02-28T05:14:45.124Z,103206.50
2023-02-28T05:17:14.962Z,103205.90
2023-02-28T05:19:44.721Z,103203.56
2023-02-28T05:22:19.738Z,103207.23
2023-02-28T05:24:52.953Z,103221.95
2023-02-28T05:27:22.817Z,103207.50
2023-02-28T05:29:53.182Z,103210.59
2023-02-28T05:32:22.909Z,103204.14
2023-02-28T05:34:52.676Z,103201.28
2023-02-28T05:37:22.810Z,103200.12
2023-02-28T05:39:52.646Z,103196.09
2023-02-28T05:42:22.218Z,103199.94
2023-02-28T05:44:52.926Z,103199.55
2023-02-28T05:47:22.763Z,103202.34
2023-02-28T05:49:52.838Z,103203.21
2023-02-28T05:52:25.631Z,103212.17
2023-02-28T05:54:55.509Z,103207.44
2023-02-28T05:57:25.931Z,103209.27
2023-02-28T05:59:55.697Z,103209.27
2023-02-28T06:02:25.515Z,103216.77
2023-02-28T06:04:55.667Z,103216.77
2023-02-28T06:07:27.558Z,103224.17
2023-02-28T06:09:57.663Z,103224.17
2023-02-28T06:12:27.676Z,103218.20
2023-02-28T06:14:57.517Z,103208.39
2023-02-28T06:17:27.392Z,103206.48
2023-02-28T06:19:57.201Z,103218.31
2023-02-28T06:22:26.780Z,103226.20
2023-02-28T06:24:57.860Z,103226.97
2023-02-28T06:27:27.728Z,103231.31
2023-02-28T06:29:57.985Z,103233.23
2023-02-28T06:32:27.841Z,103226.17
2023-02-28T06:34:59.057Z,103233.41
2023-02-28T06:37:28.580Z,103244.50
2023-02-28T06:39:58.673Z,103252.18
2023-02-28T06:42:29.759Z,103238.22
2023-02-28T06:44:59.973Z,103238.22
2023-02-28T06:47:29.755Z,103232.92
2023-02-28T06:49:59.609Z,103232.92
2023-02-28T06:52:29.120Z,103234.68
2023-02-28T06:55:01.772Z,103247.58
2023-02-28T06:57:32.706Z,103246.98
2023-02-28T07:00:05.424Z,103249.09
2023-02-28T07:02:35.718Z,103248.67
2023-02-28T07:05:09.584Z,103243.37
2023-02-28T07:07:41.144Z,103247.86
2023-02-28T07:10:14.514Z,103250.86
2023-02-28T07:12:46.223Z,103256.65
2023-02-28T07:15:16.106Z,103254.58
2023-02-28T07:17:46.079Z,103256.20
2023-02-28T07:20:15.751Z,103257.58
2023-02-28T07:22:45.310Z,103256.89
2023-02-28T07:25:15.158Z,103256.54
2023-02-28T07:27:44.906Z,103257.13
2023-02-28T07:30:15.706Z,103259.66
2023-02-28T07:32:46.000Z,103261.94
2023-02-28T07:35:16.349Z,103268.22
2023-02-28T07:37:48.025Z,103263.17
2023-02-28T07:40:18.817Z,103266.84
2023-02-28T07:42:48.518Z,103266.36
2023-02-28T07:45:20.599Z,103277.30
2023-02-28T07:47:50.632Z,103273.50
2023-02-28T07:50:20.474Z,103276.63
2023-02-28T07:52:50.333Z,103277.01
2023-02-28T07:55:21.393Z,103278.88
2023-02-28T07:57:51.237Z,103272.19
2023-02-28T08:00:21.561Z,103270.56
2023-02-28T08:02:52.161Z,103275.89
2023-02-28T08:05:22.489Z,103268.84
2023-02-28T08:07:52.492Z,103274.70
2023-02-28T08:10:22.180Z,103274.70
2023-02-28T08:12:52.301Z,103277.51
2023-02-28T08:15:22.001Z,103283.41
2023-02-28T08:17:53.418Z,103284.17
2023-02-28T08:20:23.381Z,103278.22
2023-02-28T08:22:53.366Z,103286.27
2023-02-28T08:25:23.140Z,103284.98
2023-02-28T08:27:55.903Z,103275.13
2023-02-28T08:30:25.780Z,103273.80
2023-02-28T08:32:56.316Z,103271.98
2023-02-28T08:35:26.167Z,103268.31
2023-02-28T08:37:56.013Z,103271.15
2023-02-28T08:40:25.915Z,103272.70
2023-02-28T08:42:55.785Z,103278.09
2023-02-28T08:45:25.735Z,103278.64
2023-02-28T08:47:56.899Z,103288.85
2023-02-28T08:50:26.662Z,103273.93
2023-02-28T08:52:56.529Z,103278.41
2023-02-28T08:55:28.678Z,103280.59
2023-02-28T08:57:59.503Z,103272.55
2023-02-28T09:00:29.124Z,103272.55
2023-02-28T09:02:58.917Z,103272.44
2023-02-28T09:05:30.286Z,103275.41
2023-02-28T09:08:00.161Z,103275.13
2023-02-28T09:10:29.791Z,103279.51
2023-02-28T09:12:59.604Z,103273.09
2023-02-28T09:15:29.376Z,103275.84
2023-02-28T09:18:01.195Z,103267.19
2023-02-28T09:20:30.679Z,103274.79
2023-02-28T09:23:00.805Z,103268.54
2023-02-28T09:25:30.674Z,103276.30
2023-02-28T09:28:00.464Z,103274.31
2023-02-28T09:30:30.333Z,103268.81
2023-02-28T09:33:00.185Z,103271.11
2023-02-28T09:35:31.672Z,103271.17
2023-02-28T09:38:03.137Z,103273.08
2023-02-28T09:40:33.433Z,103266.39
2023-02-28T09:43:03.397Z,103275.00
2023-02-28T09:45:36.230Z,103266.88
2023-02-28T09:48:29.368Z,103267.26
2023-02-28T09:51:07.873Z,103259.88
2023-02-28T09:53:40.936Z,103269.80
2023-02-28T09:56:17.473Z,103260.16
2023-02-28T09:59:04.631Z,103255.35
2023-02-28T10:01:43.278Z,103252.01
2023-02-28T10:04:27.899Z,103252.01
2023-02-28T10:06:58.788Z,103264.54
2023-02-28T10:09:31.863Z,103260.63
2023-02-28T10:12:09.975Z,103257.30
2023-02-28T10:14:42.807Z,103254.73
2023-02-28T10:17:19.670Z,103261.41
2023-02-28T10:20:05.436Z,103245.70
2023-02-28T10:22:38.457Z,103245.20
2023-02-28T10:25:20.483Z,103240.13
2023-02-28T10:27:51.110Z,103246.50
2023-02-28T10:30:23.530Z,103251.39
2023-02-28T10:32:57.449Z,103242.30
2023-02-28T10:35:28.743Z,103238.84
2023-02-28T10:38:01.846Z,103242.25
2023-02-28T10:40:34.685Z,103244.67
2023-02-28T10:43:17.976Z,103242.85
2023-02-28T10:46:04.362Z,103249.38
2023-02-28T10:48:51.996Z,103249.38
2023-02-28T10:51:23.558Z,103244.23
2023-02-28T10:54:01.611Z,103243.27
2023-02-28T10:56:29.618Z,103237.91
2023-02-28T10:59:12.785Z,103230.77
2023-02-28T11:01:49.295Z,103232.61
2023-02-28T11:04:30.819Z,103224.60
2023-02-28T11:07:08.650Z,103220.09
2023-02-28T11:09:41.672Z,103214.56
2023-02-28T11:12:25.188Z,103222.61
2023-02-28T11:15:03.916Z,103219.80
2023-02-28T11:17:35.042Z,103220.58
2023-02-28T11:20:08.854Z,103216.22
2023-02-28T11:22:44.627Z,103232.80
2023-02-28T11:25:19.262Z,103225.16
2023-02-28T11:27:57.488Z,103225.33
2023-02-28T11:30:30.325Z,103213.50
2023-02-28T11:32:59.951Z,103213.87
2023-02-28T11:35:36.003Z,103207.91
2023-02-28T11:38:13.679Z,103213.06
2023-02-28T11:41:01.393Z,103204.55
2023-02-28T11:43:52.266Z,103209.98
2023-02-28T11:46:52.236Z,103220.98
2023-02-28T11:49:33.833Z,103204.44
2023-02-28T11:52:15.256Z,103204.44
2023-02-28T11:55:06.225Z,103207.84
2023-02-28T11:57:39.086Z,103210.36
2023-02-28T12:00:26.250Z,103204.45
2023-02-28T12:03:22.767Z,103195.64
2023-02-28T12:05:55.806Z,103188.74
2023-02-28T12:08:46.750Z,103187.21
2023-02-28T12:11:29.147Z,103180.88
2023-02-28T12:14:23.115Z,103177.55
2023-02-28T12:16:58.611Z,103173.77
2023-02-28T12:19:44.715Z,103175.10
2023-02-28T12:22:30.377Z,103173.52
2023-02-28T12:25:20.833Z,103176.19
2023-02-28T12:27:53.466Z,103161.80
2023-02-28T12:30:25.708Z,103164.33
2023-02-28T12:33:07.318Z,103164.56
2023-02-28T12:35:44.345Z,103164.36
2023-02-28T12:38:23.150Z,103165.47
2023-02-28T12:41:15.222Z,103149.55
2023-02-28T12:43:48.426Z,103157.72
2023-02-28T12:46:24.214Z,103155.45
2023-02-28T12:48:57.640Z,103139.39
2023-02-28T12:51:29.055Z,103138.52
2023-02-28T12:54:29.243Z,103132.51
2023-02-28T12:57:27.889Z,103133.47
2023-02-28T13:00:00.749Z,103142.42
2023-02-28T13:03:00.606Z,103129.81
2023-02-28T13:05:34.975Z,103126.19
2023-02-28T13:08:35.313Z,103120.55
2023-02-28T13:11:09.998Z,103120.09
2023-02-28T13:13:37.254Z,103132.63
2023-02-28T13:16:13.040Z,103121.48
2023-02-28T13:18:45.858Z,103124.59
2023-02-28T13:21:30.532Z,103121.84
2023-02-28T13:24:03.654Z,103112.77
2023-02-28T13:26:39.375Z,103111.41
2023-02-28T13:29:20.871Z,103102.58
2023-02-28T13:32:11.546Z,103109.14
2023-02-28T13:34:43.757Z,103102.29
2023-02-28T13:37:27.060Z,103102.73
2023-02-28T13:40:00.878Z,103104.78
2023-02-28T13:42:48.329Z,103096.05
2023-02-28T13:45:29.336Z,103103.80
2023-02-28T13:48:04.703Z,103088.91
2023-02-28T13:50:38.881Z,103090.42
2023-02-28T13:53:20.827Z,103090.64
2023-02-28T13:56:18.860Z,103086.22
2023-02-28T13:58:56.781Z,103089.16
2023-02-28T14:01:33.082Z,103093.22
2023-02-28T14:04:38.856Z,103086.12
2023-02-28T14:07:11.267Z,103084.04
2023-02-28T14:09:44.232Z,103083.06
2023-02-28T14:12:49.995Z,103084.36
2023-02-28T14:15:35.128Z,103080.41
2023-02-28T14:18:09.548Z,103073.91
2023-02-28T14:20:40.868Z,103077.77
2023-02-28T14:23:28.548Z,103067.61
2023-02-28T14:26:07.842Z,103070.72
2023-02-28T14:28:52.690Z,103069.03
2023-02-28T14:31:30.071Z,103062.02
2023-02-28T14:34:08.788Z,103058.36
2023-02-28T14:36:40.655Z,103066.83
2023-02-28T14:39:22.736Z,103067.64
2023-02-28T14:41:53.040Z,103065.20
2023-02-28T14:44:28.202Z,103061.75
2023-02-28T14:47:07.090Z,103073.39
2023-02-28T14:49:42.415Z,103069.67
2023-02-28T14:52:19.613Z,103068.03
2023-02-28T14:54:54.966Z,103067.13
2023-02-28T14:57:33.001Z,103061.27
2023-02-28T15:00:17.986Z,103062.90
2023-02-28T15:02:50.690Z,103066.92
2023-02-28T15:05:29.110Z,103064.83
2023-02-28T15:08:21.454Z,103064.20
2023-02-28T15:11:03.250Z,103054.91
2023-02-28T15:13:45.943Z,103057.28
2023-02-28T15:16:24.639Z,103055.12
2023-02-28T15:19:00.219Z,103066.55
2023-02-28T15:21:33.279Z,103065.28
2023-02-28T15:24:05.953Z,103063.81
2023-02-28T15:26:44.760Z,103060.70
2023-02-28T15:29:23.320Z,103059.20
2023-02-28T15:31:58.804Z,103061.38
2023-02-28T15:34:42.882Z,103061.81
2023-02-28T15:37:31.639Z,103071.16
2023-02-28T15:40:19.191Z,103067.99
2023-02-28T15:43:04.484Z,103066.42
2023-02-28T15:46:02.630Z,103065.34
2023-02-28T15:48:51.456Z,103064.42
2023-02-28T15:51:23.519Z,103059.60
2023-02-28T15:54:02.624Z,103059.38
2023-02-28T15:56:35.963Z,103059.38
2023-02-28T15:59:08.741Z,103062.73
2023-02-28T16:01:40.416Z,103059.14
2023-02-28T16:04:20.112Z,103054.56
2023-02-28T16:07:01.763Z,103058.74
2023-02-28T16:09:34.419Z,103057.06
2023-02-28T16:12:06.418Z,103058.23
2023-02-28T16:14:39.732Z,103065.62
2023-02-28T16:17:24.212Z,103062.45
2023-02-28T16:19:54.500Z,103058.98
2023-02-28T16:25:05.237Z,103055.59
2023-02-28T16:27:38.008Z,103065.62
2023-02-28T16:30:12.303Z,103061.41
2023-02-28T16:32:42.128Z,103061.41
2023-02-28T16:35:15.147Z,103064.63
2023-02-28T16:37:44.878Z,103068.20
2023-02-28T16:40:19.149Z,103066.33
2023-02-28T16:42:51.207Z,103071.66
2023-02-28T16:45:23.718Z,103072.22
2023-02-28T16:47:54.103Z,103077.08
2023-02-28T16:50:26.372Z,103079.42
2023-02-28T16:52:56.625Z,103078.78
2023-02-28T16:55:28.368Z,103074.11
2023-02-28T16:58:00.691Z,103079.68
2023-02-28T17:00:32.411Z,103076.23
2023-02-28T17:03:05.218Z,103077.70
2023-02-28T17:05:38.478Z,103086.07
2023-02-28T17:08:11.684Z,103086.07
2023-02-28T17:10:41.456Z,103094.46
2023-02-28T17:13:15.090Z,103087.28
2023-02-28T17:15:43.443Z,103099.86
2023-02-28T17:18:19.921Z,103097.79
2023-02-28T17:20:50.724Z,103105.34
2023-02-28T17:23:20.839Z,103105.84
2023-02-28T17:25:58.211Z,103111.16
2023-02-28T17:28:28.083Z,103111.16
2023-02-28T17:30:57.973Z,103119.07
2023-02-28T17:33:27.774Z,103111.50
2023-02-28T17:35:57.741Z,103117.17
2023-02-28T17:38:27.549Z,103116.24
2023-02-28T17:40:58.282Z,103116.49
2023-02-28T17:43:29.550Z,103125.97
2023-02-28T17:45:59.671Z,103122.43
2023-02-28T17:48:31.414Z,103127.13
2023-02-28T17:51:01.226Z,103136.70
2023-02-28T17:53:33.309Z,103136.70
2023-02-28T17:56:03.386Z,103135.50
2023-02-28T17:58:33.181Z,103129.92
2023-02-28T18:01:03.236Z,103143.30
2023-02-28T18:03:33.091Z,103151.51
2023-02-28T18:06:04.162Z,103146.28
2023-02-28T18:08:37.566Z,103146.28
2023-02-28T18:11:07.387Z,103142.70
2023-02-28T18:13:37.155Z,103143.25
2023-02-28T18:16:07.545Z,103149.38
2023-02-28T18:18:38.495Z,103146.26
2023-02-28T18:21:09.904Z,103155.36
2023-02-28T18:23:41.643Z,103154.48
2023-02-28T18:26:12.200Z,103155.01
2023-02-28T18:28:43.873Z,103157.65
2023-02-28T18:31:16.680Z,103161.10
2023-02-28T18:33:51.876Z,103162.56
2023-02-28T18:36:22.627Z,103158.55
2023-02-28T18:38:53.142Z,103157.27
2023-02-28T18:41:23.373Z,103157.91
2023-02-28T18:43:54.128Z,103158.63
2023-02-28T18:46:24.319Z,103157.50
2023-02-28T18:48:54.180Z,103154.23
2023-02-28T18:51:29.034Z,103155.85
2023-02-28T18:54:01.406Z,103154.65
2023-02-28T18:56:31.593Z,103155.48
2023-02-28T18:59:01.859Z,103156.83
2023-02-28T19:01:33.544Z,103147.10
2023-02-28T19:04:03.968Z,103159.90
2023-02-28T19:06:35.133Z,103161.23
2023-02-28T19:09:05.471Z,103164.12
2023-02-28T19:11:36.682Z,103162.20
2023-02-28T19:14:08.081Z,103159.14
2023-02-28T19:16:38.290Z,103164.00
2023-02-28T19:19:08.174Z,103167.77
2023-02-28T19:21:38.012Z,103164.86
2023-02-28T19:24:09.853Z,103174.89
2023-02-28T19:26:39.688Z,103178.48
2023-02-28T19:29:09.433Z,103180.11
2023-02-28T19:31:39.282Z,103178.66
2023-02-28T19:34:11.077Z,103180.48
2023-02-28T19:36:40.840Z,103186.06
2023-02-28T19:39:12.658Z,103189.05
2023-02-28T19:41:42.716Z,103188.56
2023-02-28T19:44:13.296Z,103189.15
2023-02-28T19:46:44.366Z,103191.94
2023-02-28T19:49:14.219Z,103193.45
2023-02-28T19:51:44.554Z,103192.59
2023-02-28T19:54:14.194Z,103192.47
2023-02-28T19:56:44.057Z,103195.31
2023-02-28T19:59:21.206Z,103195.31
2023-02-28T20:01:46.266Z,103193.94
2023-02-28T20:04:16.051Z,103204.47
2023-02-28T20:06:45.810Z,103204.61
2023-02-28T20:09:16.552Z,103202.95
2023-02-28T20:11:47.536Z,103204.70
2023-02-28T20:14:17.820Z,103203.02
2023-02-28T20:16:48.130Z,103205.16
2023-02-28T20:19:18.717Z,103200.78
2023-02-28T20:21:48.587Z,103202.06
2023-02-28T20:24:18.100Z,103204.08
2023-02-28T20:26:47.949Z,103189.84
2023-02-28T20:29:17.702Z,103200.50
2023-02-28T20:31:47.764Z,103195.98
2023-02-28T20:34:17.910Z,103193.58
2023-02-28T20:36:47.814Z,103190.34
2023-02-28T20:39:17.871Z,103188.77
2023-02-28T20:41:47.629Z,103197.81
2023-02-28T20:44:17.393Z,103189.35
2023-02-28T20:46:47.138Z,103192.30
2023-02-28T20:49:17.297Z,103192.23
2023-02-28T20:51:47.106Z,103194.12
2023-02-28T20:54:16.875Z,103200.04
2023-02-28T20:56:46.798Z,103200.04
2023-02-28T20:59:16.621Z,103198.64
2023-02-28T21:01:46.536Z,103199.48
2023-02-28T21:04:16.444Z,103201.52
2023-02-28T21:06:47.893Z,103204.84
2023-02-28T21:09:17.751Z,103208.64
2023-02-28T21:11:47.966Z,103211.88
2023-02-28T21:14:18.994Z,103216.52
2023-02-28T21:16:48.888Z,103217.09
2023-02-28T21:19:18.825Z,103216.94
2023-02-28T21:21:49.014Z,103221.45
2023-02-28T21:24:21.068Z,103215.70
2023-02-28T21:26:51.874Z,103208.97
2023-02-28T21:29:21.713Z,103208.64
2023-02-28T21:31:53.877Z,103203.20
2023-02-28T21:34:23.508Z,103193.70
2023-02-28T21:36:54.343Z,103200.08
2023-02-28T21:39:28.749Z,103196.68
2023-02-28T21:42:00.509Z,103200.67
2023-02-28T21:44:30.769Z,103200.67
2023-02-28T21:47:03.287Z,103193.64
2023-02-28T21:49:33.276Z,103196.80
2023-02-28T21:52:03.038Z,103203.53
2023-02-28T21:54:32.793Z,103200.84
2023-02-28T21:57:02.619Z,103203.05
2023-02-28T21:59:32.512Z,103205.81
2023-02-28T22:02:02.369Z,103206.91
2023-02-28T22:04:32.202Z,103204.89
2023-02-28T22:07:02.165Z,103205.54
2023-02-28T22:09:32.592Z,103206.86
2023-02-28T22:12:02.655Z,103202.50
2023-02-28T22:14:33.000Z,103209.06
2023-02-28T22:17:03.162Z,103214.58
2023-02-28T22:19:34.659Z,103214.58
2023-02-28T22:22:04.437Z,103220.13
2023-02-28T22:24:34.501Z,103221.34
2023-02-28T22:27:04.331Z,103223.96
2023-02-28T22:29:34.514Z,103223.73
2023-02-28T22:32:04.770Z,103222.44
2023-02-28T22:34:34.270Z,103223.39
2023-02-28T22:37:04.052Z,103220.91
2023-02-28T22:39:33.935Z,103227.47
2023-02-28T22:42:03.693Z,103223.69
2023-02-28T22:44:33.453Z,103221.66
2023-02-28T22:47:03.580Z,103232.68
2023-02-28T22:49:33.490Z,103229.15
2023-02-28T22:52:03.263Z,103221.87
2023-02-28T22:54:33.070Z,103222.68
2023-02-28T22:57:02.973Z,103223.59
2023-02-28T22:59:32.827Z,103224.88
2023-02-28T23:02:02.637Z,103211.12
2023-02-28T23:04:32.785Z,103223.25
2023-02-28T23:07:02.555Z,103215.99
2023-02-28T23:09:32.320Z,103210.41
2023-02-28T23:12:02.057Z,103210.41
2023-02-28T23:14:31.908Z,103211.66
2023-02-28T23:17:01.980Z,103212.41
2023-02-28T23:19:32.465Z,103224.73
2023-02-28T23:22:03.550Z,103231.74
2023-02-28T23:24:35.545Z,103230.14
2023-02-28T23:27:07.248Z,103226.50
2023-02-28T23:29:37.448Z,103231.69
2023-02-28T23:32:09.070Z,103229.30
2023-02-28T23:34:38.949Z,103235.04
2023-02-28T23:37:08.745Z,103229.11
2023-02-28T23:39:38.791Z,103228.41
2023-02-28T23:42:10.944Z,103226.61
2023-02-28T23:44:40.845Z,103235.04
2023-02-28T23:47:12.242Z,103238.34
2023-02-28T23:49:42.034Z,103238.81
2023-02-28T23:52:14.021Z,103239.95
2023-02-28T23:54:44.245Z,103243.58
2023-02-28T23:57:14.154Z,103243.58
2023-02-28T23:59:43.996Z,103248.22
